Time;durP1;ratioP1;P1;durP2;ratioP2;P2;SDS_P1;SDS_P2;PMS_P1;PMS_P2;Temp;Humidity;BMP_temperature;BMP_pressure;BME280_temperature;BME280_humidity;BME280_pressure;Samples;Min_cycle;Max_cycle;Signal;HPM_P1;HPM_P2
2022/06/11 00:02:24;;;;;;;0.93;0.90;;;;;;;;;;5013722;28;20749;-82
2022/06/11 00:04:52;;;;;;;1.40;0.90;;;;;;;;;;5016040;28;20265;-82
2022/06/11 00:07:23;;;;;;;0.93;0.93;;;;;;;;;;5015793;28;20233;-82
2022/06/11 00:09:51;;;;;;;1.70;1.25;;;;;;;;;;5015791;28;20245;-83
2022/06/11 00:12:19;;;;;;;1.10;1.10;;;;;;;;;;5013466;28;20210;-82
2022/06/11 00:14:49;;;;;;;1.60;1.00;;;;;;;;;;5014340;28;20195;-82
2022/06/11 00:17:22;;;;;;;0.90;0.90;;;;;;;;;;5013688;28;20286;-81
2022/06/11 00:19:50;;;;;;;1.25;1.25;;;;;;;;;;5013852;28;20313;-82
2022/06/11 00:22:20;;;;;;;2.70;1.40;;;;;;;;;;5013551;28;20226;-83
2022/06/11 00:24:48;;;;;;;1.67;1.10;;;;;;;;;;5013966;28;20203;-82
2022/06/11 00:27:16;;;;;;;1.30;1.20;;;;;;;;;;5013710;28;20235;-83
2022/06/11 00:29:46;;;;;;;1.17;1.08;;;;;;;;;;5013673;28;20326;-82
2022/06/11 00:32:15;;;;;;;1.20;1.10;;;;;;;;;;5013245;28;20301;-82
2022/06/11 00:34:44;;;;;;;1.10;1.10;;;;;;;;;;5012685;28;20298;-81
2022/06/11 00:37:14;;;;;;;1.10;1.10;;;;;;;;;;5012758;28;20238;-82
2022/06/11 00:39:43;;;;;;;0.93;0.93;;;;;;;;;;5013389;28;20726;-82
2022/06/11 00:42:17;;;;;;;1.10;1.10;;;;;;;;;;5012934;28;20226;-83
2022/06/11 00:44:45;;;;;;;2.83;1.50;;;;;;;;;;5013768;28;20543;-81
2022/06/11 00:47:18;;;;;;;1.05;1.05;;;;;;;;;;5012987;28;20344;-81
2022/06/11 00:49:51;;;;;;;1.38;1.30;;;;;;;;;;5012959;28;20229;-81
2022/06/11 00:52:29;;;;;;;1.52;1.42;;;;;;;;;;5012491;28;20585;-81
2022/06/11 00:55:05;;;;;;;1.92;1.40;;;;;;;;;;5013307;28;20655;-81
2022/06/11 00:57:38;;;;;;;1.52;1.40;;;;;;;;;;5012854;28;20209;-81
2022/06/11 01:00:12;;;;;;;1.75;1.63;;;;;;;;;;5013088;28;20202;-81
2022/06/11 01:02:40;;;;;;;2.00;1.73;;;;;;;;;;5012179;28;20567;-82
2022/06/11 01:05:12;;;;;;;1.80;1.50;;;;;;;;;;5012766;28;20238;-81
2022/06/11 01:07:57;;;;;;;2.45;2.25;;;;;;;;;;5013042;28;20207;-81
2022/06/11 01:10:48;;;;;;;2.65;1.98;;;;;;;;;;5013008;28;20289;-82
2022/06/11 01:13:30;;;;;;;3.25;1.95;;;;;;;;;;5012083;28;20320;-82
2022/06/11 01:16:01;;;;;;;1.80;1.70;;;;;;;;;;5013054;28;20199;-81
2022/06/11 01:18:40;;;;;;;1.42;1.30;;;;;;;;;;5012455;28;20227;-81
2022/06/11 01:21:23;;;;;;;1.17;1.17;;;;;;;;;;5012189;28;20682;-81
2022/06/11 01:24:31;;;;;;;1.88;1.40;;;;;;;;;;5011886;28;20225;-83
2022/06/11 01:27:41;;;;;;;1.30;1.20;;;;;;;;;;5012444;28;20226;-82
2022/06/11 01:30:12;;;;;;;1.40;1.30;;;;;;;;;;5012035;28;20298;-81
2022/06/11 01:32:53;;;;;;;1.98;1.48;;;;;;;;;;5011425;28;20289;-81
2022/06/11 01:35:31;;;;;;;1.40;1.30;;;;;;;;;;5011668;28;20646;-83
2022/06/11 01:38:03;;;;;;;1.60;1.30;;;;;;;;;;5012129;28;20215;-81
2022/06/11 01:40:41;;;;;;;1.30;1.20;;;;;;;;;;5012281;28;20293;-81
2022/06/11 01:43:23;;;;;;;1.25;1.20;;;;;;;;;;5011486;28;20623;-81
2022/06/11 01:45:53;;;;;;;1.30;1.20;;;;;;;;;;5014103;28;20313;-81
2022/06/11 01:48:24;;;;;;;0.80;0.80;;;;;;;;;;5016013;28;20653;-81
2022/06/11 01:51:07;;;;;;;1.00;1.00;;;;;;;;;;5016266;28;20286;-81
2022/06/11 01:53:55;;;;;;;0.90;0.90;;;;;;;;;;5015252;28;20226;-81
2022/06/11 01:56:47;;;;;;;1.40;1.30;;;;;;;;;;5015936;28;20655;-81
2022/06/11 01:59:45;;;;;;;1.98;1.15;;;;;;;;;;5016226;28;20306;-82
2022/06/11 02:02:32;;;;;;;1.35;1.25;;;;;;;;;;5015309;28;20474;-81
2022/06/11 02:05:06;;;;;;;1.75;1.30;;;;;;;;;;5015575;28;20289;-82
2022/06/11 02:07:41;;;;;;;2.30;1.50;;;;;;;;;;5015306;28;20782;-81
2022/06/11 02:10:13;;;;;;;1.25;1.20;;;;;;;;;;5015666;28;20629;-81
2022/06/11 02:12:47;;;;;;;1.45;1.35;;;;;;;;;;5014821;28;20294;-81
2022/06/11 02:15:20;;;;;;;3.10;2.47;;;;;;;;;;5015708;28;20322;-81
2022/06/11 02:17:53;;;;;;;1.40;1.30;;;;;;;;;;5015260;28;20234;-82
2022/06/11 02:20:25;;;;;;;1.38;1.27;;;;;;;;;;5015608;28;20253;-81
2022/06/11 02:22:57;;;;;;;2.58;1.42;;;;;;;;;;5015179;28;20655;-81
2022/06/11 02:25:28;;;;;;;1.35;1.25;;;;;;;;;;5015226;28;20242;-81
2022/06/11 02:27:59;;;;;;;2.17;1.10;;;;;;;;;;5015100;28;20238;-81
2022/06/11 02:30:30;;;;;;;0.80;0.80;;;;;;;;;;5015271;28;20207;-81
2022/06/11 02:33:00;;;;;;;1.73;1.23;;;;;;;;;;5014009;28;20298;-81
2022/06/11 02:35:33;;;;;;;1.58;1.50;;;;;;;;;;5014859;28;20294;-81
2022/06/11 02:38:00;;;;;;;1.35;1.25;;;;;;;;;;5015097;28;20277;-81
2022/06/11 02:40:32;;;;;;;1.00;1.00;;;;;;;;;;5014810;28;20241;-81
2022/06/11 02:42:59;;;;;;;1.15;1.10;;;;;;;;;;5014568;28;20265;-81
2022/06/11 02:45:27;;;;;;;1.55;1.25;;;;;;;;;;5021952;28;20213;-81
2022/06/11 02:47:55;;;;;;;1.23;1.15;;;;;;;;;;5030332;28;20237;-82
2022/06/11 02:50:28;;;;;;;1.80;1.20;;;;;;;;;;5030751;28;20214;-82
2022/06/11 02:52:56;;;;;;;1.52;1.42;;;;;;;;;;5024158;28;20334;-81
2022/06/11 02:55:25;;;;;;;1.10;1.10;;;;;;;;;;5017486;28;20685;-82
2022/06/11 02:57:52;;;;;;;1.48;1.38;;;;;;;;;;5016844;28;20230;-83
2022/06/11 03:00:26;;;;;;;1.48;1.38;;;;;;;;;;5016549;28;20234;-83
2022/06/11 03:02:54;;;;;;;0.90;0.90;;;;;;;;;;5016009;28;20241;-82
2022/06/11 03:05:30;;;;;;;1.25;1.23;;;;;;;;;;5014692;28;20203;-83
2022/06/11 03:07:59;;;;;;;2.15;1.10;;;;;;;;;;5016079;28;20618;-82
2022/06/11 03:10:28;;;;;;;1.00;1.00;;;;;;;;;;5014358;28;20296;-83
2022/06/11 03:12:57;;;;;;;1.00;1.00;;;;;;;;;;5025627;28;20275;-82
2022/06/11 03:15:27;;;;;;;1.23;1.10;;;;;;;;;;5026299;28;20230;-81
2022/06/11 03:17:57;;;;;;;1.45;1.35;;;;;;;;;;5023447;28;20223;-81
2022/06/11 03:20:29;;;;;;;1.08;1.00;;;;;;;;;;5021327;28;20686;-82
2022/06/11 03:22:58;;;;;;;1.63;1.52;;;;;;;;;;5020536;28;20762;-83
2022/06/11 03:25:25;;;;;;;1.40;1.30;;;;;;;;;;5019980;28;20229;-82
2022/06/11 03:27:53;;;;;;;1.23;1.23;;;;;;;;;;5020135;28;20298;-82
2022/06/11 03:30:21;;;;;;;1.38;1.27;;;;;;;;;;5019148;28;20306;-82
2022/06/11 03:32:48;;;;;;;2.45;1.50;;;;;;;;;;5019388;28;20285;-82
2022/06/11 03:35:16;;;;;;;2.05;1.63;;;;;;;;;;5018467;28;20211;-84
2022/06/11 03:37:46;;;;;;;2.85;1.95;;;;;;;;;;5016091;28;20306;-82
2022/06/11 03:40:14;;;;;;;1.70;1.60;;;;;;;;;;5018415;28;20260;-82
2022/06/11 03:42:42;;;;;;;1.40;1.13;;;;;;;;;;5015345;28;20290;-82
2022/06/11 03:45:12;;;;;;;4.03;1.83;;;;;;;;;;5015296;28;20199;-82
2022/06/11 03:47:40;;;;;;;4.38;1.70;;;;;;;;;;5017547;28;20680;-81
2022/06/11 03:50:16;;;;;;;2.08;1.88;;;;;;;;;;5017022;28;20567;-81
2022/06/11 03:52:45;;;;;;;2.72;1.60;;;;;;;;;;5016158;28;20625;-82
2022/06/11 03:55:13;;;;;;;2.30;2.13;;;;;;;;;;5015342;28;20209;-81
2022/06/11 03:57:41;;;;;;;1.90;1.80;;;;;;;;;;5014803;28;20699;-82
2022/06/11 04:00:14;;;;;;;1.50;1.40;;;;;;;;;;5014876;28;20203;-82
2022/06/11 04:02:42;;;;;;;2.65;2.40;;;;;;;;;;5015326;28;20289;-81
2022/06/11 04:05:10;;;;;;;2.22;1.95;;;;;;;;;;5015625;28;20203;-81
2022/06/11 04:07:38;;;;;;;2.45;1.90;;;;;;;;;;5014350;28;20579;-81
2022/06/11 04:10:10;;;;;;;2.65;1.98;;;;;;;;;;5015327;28;20294;-82
2022/06/11 04:12:37;;;;;;;2.95;1.63;;;;;;;;;;5014269;28;20209;-82
2022/06/11 04:15:06;;;;;;;3.08;2.00;;;;;;;;;;5015005;28;20286;-82
2022/06/11 04:17:34;;;;;;;3.35;1.33;;;;;;;;;;5015474;28;20714;-82
2022/06/11 04:20:02;;;;;;;1.60;1.50;;;;;;;;;;5015688;28;20645;-82
2022/06/11 04:22:29;;;;;;;1.10;1.10;;;;;;;;;;5015419;28;20262;-82
2022/06/11 04:24:57;;;;;;;0.88;0.88;;;;;;;;;;5017648;28;20290;-82
2022/06/11 04:27:26;;;;;;;1.10;1.10;;;;;;;;;;5016381;28;20317;-82
2022/06/11 04:29:57;;;;;;;1.40;1.30;;;;;;;;;;5016671;28;20309;-83
2022/06/11 04:32:26;;;;;;;1.00;1.00;;;;;;;;;;5014809;28;20293;-83
2022/06/11 04:34:55;;;;;;;1.55;1.38;;;;;;;;;;5017835;28;20294;-81
2022/06/11 04:37:26;;;;;;;1.50;1.40;;;;;;;;;;5016318;28;20203;-81
2022/06/11 04:39:56;;;;;;;1.98;1.77;;;;;;;;;;5017232;28;20219;-81
2022/06/11 04:42:27;;;;;;;1.80;1.70;;;;;;;;;;5014314;28;20207;-82
2022/06/11 04:44:54;;;;;;;1.60;1.50;;;;;;;;;;5015973;28;20290;-82
2022/06/11 04:47:26;;;;;;;1.50;1.40;;;;;;;;;;5014586;28;20198;-81
2022/06/11 04:49:56;;;;;;;1.85;1.70;;;;;;;;;;5014480;28;20309;-81
2022/06/11 04:52:24;;;;;;;2.30;2.10;;;;;;;;;;5014457;28;20293;-82
2022/06/11 04:54:53;;;;;;;2.55;1.65;;;;;;;;;;5014590;28;20285;-81
2022/06/11 04:57:22;;;;;;;1.70;1.60;;;;;;;;;;5014113;28;20222;-81
2022/06/11 04:59:51;;;;;;;1.80;1.42;;;;;;;;;;5014219;28;20330;-81
2022/06/11 05:02:20;;;;;;;1.70;1.40;;;;;;;;;;5012405;28;20207;-81
2022/06/11 05:04:48;;;;;;;1.52;1.42;;;;;;;;;;5014098;28;20211;-81
2022/06/11 05:07:15;;;;;;;2.53;1.40;;;;;;;;;;5013510;28;20698;-82
2022/06/11 05:09:43;;;;;;;2.15;1.80;;;;;;;;;;5013500;28;20233;-81
2022/06/11 05:12:12;;;;;;;1.65;1.55;;;;;;;;;;5011664;28;20278;-81
2022/06/11 05:14:40;;;;;;;2.17;1.60;;;;;;;;;;5013037;28;20738;-82
2022/06/11 05:17:09;;;;;;;9.68;2.72;;;;;;;;;;5013783;28;20310;-83
2022/06/11 05:19:37;;;;;;;1.65;1.38;;;;;;;;;;5012347;28;20266;-81
2022/06/11 05:22:05;;;;;;;2.33;1.83;;;;;;;;;;5012533;28;20346;-81
2022/06/11 05:24:33;;;;;;;1.50;1.30;;;;;;;;;;5013793;28;20282;-81
2022/06/11 05:27:06;;;;;;;1.98;1.45;;;;;;;;;;5013335;28;20742;-81
2022/06/11 05:29:43;;;;;;;2.50;1.88;;;;;;;;;;5034827;23;20261;-79
2022/06/11 05:32:12;;;;;;;1.15;1.08;;;;;;;;;;5013482;28;20264;-78
2022/06/11 05:34:40;;;;;;;1.52;1.42;;;;;;;;;;5013251;28;20298;-78
2022/06/11 05:37:07;;;;;;;1.88;1.15;;;;;;;;;;5012938;28;20305;-79
2022/06/11 05:39:35;;;;;;;1.20;1.20;;;;;;;;;;5001626;28;20247;-77
2022/06/11 05:42:03;;;;;;;1.48;1.30;;;;;;;;;;4993485;28;20290;-84
2022/06/11 05:44:30;;;;;;;1.85;1.63;;;;;;;;;;4993788;28;20286;-84
2022/06/11 05:46:58;;;;;;;2.58;1.88;;;;;;;;;;4995258;28;20519;-84
2022/06/11 05:49:38;;;;;;;1.70;1.60;;;;;;;;;;4994548;28;20310;-84
2022/06/11 05:52:13;;;;;;;1.30;1.20;;;;;;;;;;4993335;28;20211;-84
2022/06/11 05:54:42;;;;;;;1.73;1.60;;;;;;;;;;4994174;28;20294;-84
2022/06/11 05:57:12;;;;;;;1.40;1.23;;;;;;;;;;5000297;28;20234;-85
2022/06/11 05:59:45;;;;;;;1.15;1.13;;;;;;;;;;5002968;28;20295;-85
2022/06/11 06:02:16;;;;;;;1.08;1.08;;;;;;;;;;4993808;28;20291;-84
2022/06/11 06:04:45;;;;;;;1.20;1.10;;;;;;;;;;4994678;28;20271;-84
2022/06/11 06:07:13;;;;;;;1.55;1.45;;;;;;;;;;4994456;28;20287;-84
2022/06/11 06:09:40;;;;;;;1.33;1.23;;;;;;;;;;4994687;28;20662;-84
2022/06/11 06:12:09;;;;;;;1.20;1.10;;;;;;;;;;4995178;28;20227;-86
2022/06/11 06:14:37;;;;;;;1.27;1.27;;;;;;;;;;4997462;28;20258;-86
2022/06/11 06:17:05;;;;;;;2.10;1.60;;;;;;;;;;4996777;28;20283;-85
2022/06/11 06:19:33;;;;;;;1.75;1.50;;;;;;;;;;4996471;28;20280;-85
2022/06/11 06:22:04;;;;;;;2.25;1.13;;;;;;;;;;4994385;28;20250;-84
2022/06/11 06:24:32;;;;;;;1.95;0.90;;;;;;;;;;4995073;28;20204;-85
2022/06/11 06:27:01;;;;;;;0.85;0.85;;;;;;;;;;4998876;28;20291;-84
2022/06/11 06:29:28;;;;;;;1.10;1.10;;;;;;;;;;5013758;28;20263;-85
2022/06/11 06:31:56;;;;;;;1.38;1.27;;;;;;;;;;5016663;28;20676;-85
2022/06/11 06:34:24;;;;;;;1.55;1.45;;;;;;;;;;5018077;28;20210;-85
2022/06/11 06:36:52;;;;;;;2.75;1.90;;;;;;;;;;5018371;28;20675;-85
2022/06/11 06:39:21;;;;;;;1.23;1.13;;;;;;;;;;5016932;28;20654;-85
2022/06/11 06:41:49;;;;;;;1.27;1.17;;;;;;;;;;5016673;28;20302;-85
2022/06/11 06:44:16;;;;;;;2.53;1.23;;;;;;;;;;5019111;28;20203;-84
2022/06/11 06:46:44;;;;;;;1.63;1.50;;;;;;;;;;5022808;28;20209;-86
2022/06/11 06:49:12;;;;;;;1.17;1.17;;;;;;;;;;5024084;28;20226;-85
2022/06/11 06:51:39;;;;;;;2.05;1.85;;;;;;;;;;5022934;28;20775;-85
2022/06/11 06:54:07;;;;;;;1.30;1.20;;;;;;;;;;5022442;28;20289;-85
2022/06/11 06:56:36;;;;;;;1.42;1.33;;;;;;;;;;5021716;28;20294;-85
2022/06/11 06:59:04;;;;;;;1.38;1.27;;;;;;;;;;5021509;28;20317;-85
2022/06/11 07:01:33;;;;;;;1.67;1.45;;;;;;;;;;5021641;28;20249;-85
2022/06/11 07:04:01;;;;;;;2.35;2.05;;;;;;;;;;5021788;28;20762;-85
2022/06/11 07:06:30;;;;;;;1.23;1.13;;;;;;;;;;5021842;28;20226;-85
2022/06/11 07:08:58;;;;;;;2.47;2.08;;;;;;;;;;5022514;28;20313;-85
2022/06/11 07:11:26;;;;;;;1.30;1.20;;;;;;;;;;5021482;28;20207;-85
2022/06/11 07:13:55;;;;;;;1.20;1.10;;;;;;;;;;5021343;28;20348;-86
2022/06/11 07:16:30;;;;;;;1.55;1.20;;;;;;;;;;5022536;28;20586;-85
2022/06/11 07:19:01;;;;;;;3.10;1.45;;;;;;;;;;5021888;28;20309;-85
2022/06/11 07:21:33;;;;;;;2.33;2.10;;;;;;;;;;5022367;28;20282;-85
2022/06/11 07:24:04;;;;;;;1.40;1.27;;;;;;;;;;5021553;28;20257;-84
2022/06/11 07:26:36;;;;;;;2.55;1.75;;;;;;;;;;5022631;28;20293;-86
2022/06/11 07:29:10;;;;;;;2.35;1.90;;;;;;;;;;5023857;28;20231;-85
2022/06/11 07:31:38;;;;;;;2.97;2.63;;;;;;;;;;5022585;28;20199;-85
2022/06/11 07:34:06;;;;;;;1.88;1.77;;;;;;;;;;5023200;28;20210;-85
2022/06/11 07:36:35;;;;;;;1.65;1.52;;;;;;;;;;5021447;28;20199;-86
2022/06/11 07:39:02;;;;;;;1.80;1.67;;;;;;;;;;5021387;28;20251;-86
2022/06/11 07:41:30;;;;;;;1.40;1.27;;;;;;;;;;5021487;28;20637;-86
2022/06/11 07:43:57;;;;;;;1.80;1.40;;;;;;;;;;5019571;28;20274;-85
2022/06/11 07:46:27;;;;;;;1.55;1.45;;;;;;;;;;5021452;28;20253;-85
2022/06/11 07:48:54;;;;;;;1.50;1.40;;;;;;;;;;5020068;28;20310;-86
2022/06/11 07:51:22;;;;;;;1.33;1.23;;;;;;;;;;5020207;28;20314;-86
2022/06/11 07:53:50;;;;;;;1.80;1.50;;;;;;;;;;5019202;28;20281;-85
2022/06/11 07:56:19;;;;;;;2.17;1.38;;;;;;;;;;5020144;28;20195;-87
2022/06/11 07:58:49;;;;;;;1.90;1.60;;;;;;;;;;5019423;28;20223;-85
2022/06/11 08:01:16;;;;;;;1.33;1.23;;;;;;;;;;5020789;28;20625;-86
2022/06/11 08:03:45;;;;;;;3.70;1.70;;;;;;;;;;5019232;28;20245;-86
2022/06/11 08:06:13;;;;;;;1.63;1.52;;;;;;;;;;5020033;28;20241;-86
2022/06/11 08:08:41;;;;;;;2.58;1.42;;;;;;;;;;5019896;28;20251;-86
2022/06/11 08:11:09;;;;;;;1.40;1.30;;;;;;;;;;5018980;28;20262;-87
2022/06/11 08:13:37;;;;;;;1.42;1.27;;;;;;;;;;5018506;28;20227;-86
2022/06/11 08:16:06;;;;;;;2.08;1.50;;;;;;;;;;5019933;28;20246;-87
2022/06/11 08:18:34;;;;;;;1.75;1.65;;;;;;;;;;5019883;28;20702;-86
2022/06/11 08:21:03;;;;;;;1.98;1.65;;;;;;;;;;5019665;28;20219;-86
2022/06/11 08:23:31;;;;;;;3.03;1.73;;;;;;;;;;5019472;28;20627;-88
2022/06/11 08:25:59;;;;;;;1.92;1.58;;;;;;;;;;5019627;28;20205;-86
2022/06/11 08:28:27;;;;;;;2.10;1.92;;;;;;;;;;5019669;28;20234;-87
2022/06/11 08:30:54;;;;;;;1.85;1.50;;;;;;;;;;5017759;28;20222;-86
2022/06/11 08:33:22;;;;;;;1.08;1.08;;;;;;;;;;5017473;28;20286;-87
2022/06/11 08:35:49;;;;;;;1.50;1.40;;;;;;;;;;5023534;28;20207;-85
2022/06/11 08:38:18;;;;;;;1.45;1.35;;;;;;;;;;5020321;28;20207;-85
2022/06/11 08:40:50;;;;;;;1.85;1.50;;;;;;;;;;5018058;28;20631;-86
2022/06/11 08:43:21;;;;;;;2.78;2.08;;;;;;;;;;5019443;28;20198;-85
2022/06/11 08:45:52;;;;;;;1.70;1.60;;;;;;;;;;5017739;28;20207;-86
2022/06/11 08:48:31;;;;;;;1.40;1.30;;;;;;;;;;5017952;28;20294;-84
2022/06/11 08:51:13;;;;;;;1.45;1.35;;;;;;;;;;5017889;28;20254;-86
2022/06/11 08:53:42;;;;;;;2.28;1.90;;;;;;;;;;5018560;28;20238;-86
2022/06/11 08:56:18;;;;;;;2.45;1.60;;;;;;;;;;5018525;28;20242;-85
2022/06/11 08:59:12;;;;;;;2.38;2.17;;;;;;;;;;5018078;28;20321;-86
2022/06/11 09:01:52;;;;;;;1.60;1.50;;;;;;;;;;5018496;28;20286;-85
2022/06/11 09:04:44;;;;;;;1.50;1.40;;;;;;;;;;5019962;28;20282;-86
2022/06/11 09:07:27;;;;;;;1.33;1.23;;;;;;;;;;5019761;28;20207;-88
2022/06/11 09:10:11;;;;;;;1.33;1.20;;;;;;;;;;5018870;28;20258;-85
2022/06/11 09:13:08;;;;;;;1.08;1.08;;;;;;;;;;5016860;28;20266;-84
2022/06/11 09:15:46;;;;;;;1.20;1.10;;;;;;;;;;5016371;28;20285;-87
2022/06/11 09:18:30;;;;;;;1.27;1.17;;;;;;;;;;5013998;28;20289;-85
2022/06/11 09:21:13;;;;;;;1.25;1.15;;;;;;;;;;5014183;28;20290;-84
2022/06/11 09:24:31;;;;;;;1.30;1.20;;;;;;;;;;5013345;28;20206;-85
2022/06/11 09:27:01;;;;;;;1.38;1.27;;;;;;;;;;5015677;28;20636;-85
2022/06/11 09:29:33;;;;;;;4.90;2.05;;;;;;;;;;5012843;28;20243;-85
2022/06/11 09:32:06;;;;;;;1.70;1.60;;;;;;;;;;5012941;28;20237;-85
2022/06/11 09:34:40;;;;;;;1.80;1.27;;;;;;;;;;5013729;28;20664;-85
2022/06/11 09:37:13;;;;;;;4.22;1.73;;;;;;;;;;5014850;28;20629;-87
2022/06/11 09:39:43;;;;;;;1.52;1.42;;;;;;;;;;5014510;28;20255;-87
2022/06/11 09:42:47;;;;;;;2.00;1.90;;;;;;;;;;5013808;28;20282;-85
2022/06/11 09:45:21;;;;;;;1.95;1.63;;;;;;;;;;5006477;28;20237;-86
2022/06/11 09:47:59;;;;;;;1.90;1.50;;;;;;;;;;5013979;28;20207;-86
2022/06/11 09:50:31;;;;;;;1.70;1.60;;;;;;;;;;5013342;28;20631;-85
2022/06/11 09:53:12;;;;;;;3.67;1.90;;;;;;;;;;5015704;28;20691;-86
2022/06/11 09:55:48;;;;;;;2.53;1.70;;;;;;;;;;5014838;28;20223;-88
2022/06/11 09:58:39;;;;;;;1.60;1.48;;;;;;;;;;5014121;28;20238;-86
2022/06/11 10:01:14;;;;;;;1.77;1.67;;;;;;;;;;5013224;28;20750;-86
2022/06/11 10:03:45;;;;;;;1.60;1.50;;;;;;;;;;5014220;28;20290;-85
2022/06/11 10:06:15;;;;;;;1.20;1.20;;;;;;;;;;5013635;28;20608;-84
2022/06/11 10:08:49;;;;;;;1.20;1.20;;;;;;;;;;5016325;28;20269;-85
2022/06/11 10:11:22;;;;;;;1.30;1.20;;;;;;;;;;5015244;28;20223;-84
2022/06/11 10:13:55;;;;;;;3.90;1.70;;;;;;;;;;5017578;28;20199;-86
2022/06/11 10:16:31;;;;;;;2.40;1.25;;;;;;;;;;5017081;28;20731;-85
2022/06/11 10:19:15;;;;;;;1.75;1.50;;;;;;;;;;5016256;28;20226;-85
2022/06/11 10:21:55;;;;;;;1.83;1.70;;;;;;;;;;5018965;28;20270;-86
2022/06/11 10:24:24;;;;;;;4.40;1.92;;;;;;;;;;5018487;28;20294;-85
2022/06/11 10:26:57;;;;;;;2.40;1.67;;;;;;;;;;5017232;28;20282;-86
2022/06/11 10:29:33;;;;;;;1.50;1.40;;;;;;;;;;5017277;28;20666;-86
2022/06/11 10:32:06;;;;;;;1.33;1.23;;;;;;;;;;5017944;28;20715;-84
2022/06/11 10:34:34;;;;;;;1.50;1.40;;;;;;;;;;5016780;28;20290;-85
2022/06/11 10:37:07;;;;;;;1.70;1.45;;;;;;;;;;5015876;28;20210;-85
2022/06/11 10:39:40;;;;;;;1.00;1.00;;;;;;;;;;5017313;28;20233;-85
2022/06/11 10:42:13;;;;;;;1.50;1.40;;;;;;;;;;5017081;28;20808;-85
2022/06/11 10:44:47;;;;;;;1.88;1.70;;;;;;;;;;5018272;28;20238;-87
2022/06/11 10:47:21;;;;;;;1.40;1.20;;;;;;;;;;5015859;28;20218;-85
2022/06/11 10:49:55;;;;;;;1.63;1.52;;;;;;;;;;5017747;28;20311;-86
2022/06/11 10:52:32;;;;;;;2.15;1.38;;;;;;;;;;5016620;28;20223;-85
2022/06/11 10:55:00;;;;;;;1.20;1.10;;;;;;;;;;5016251;28;20218;-86
2022/06/11 10:57:29;;;;;;;1.58;1.48;;;;;;;;;;5017209;28;20230;-84
2022/06/11 11:00:06;;;;;;;1.00;0.98;;;;;;;;;;5016985;28;20722;-86
2022/06/11 11:02:39;;;;;;;1.45;1.35;;;;;;;;;;5015293;28;20636;-85
2022/06/11 11:05:09;;;;;;;1.45;1.35;;;;;;;;;;5016814;28;20203;-86
2022/06/11 11:07:57;;;;;;;1.40;1.30;;;;;;;;;;5015344;28;20282;-86
2022/06/11 11:10:43;;;;;;;1.55;1.10;;;;;;;;;;5014233;28;20223;-85
2022/06/11 11:13:22;;;;;;;1.20;1.10;;;;;;;;;;5014104;28;20222;-85
2022/06/11 11:16:01;;;;;;;1.10;1.10;;;;;;;;;;5016189;28;20206;-85
2022/06/11 11:18:36;;;;;;;1.90;1.83;;;;;;;;;;5015938;28;20212;-85
2022/06/11 11:21:05;;;;;;;0.90;0.90;;;;;;;;;;5016920;28;20198;-84
2022/06/11 11:23:38;;;;;;;0.80;0.80;;;;;;;;;;5015900;28;20290;-85
2022/06/11 11:26:33;;;;;;;0.95;0.95;;;;;;;;;;5015337;28;20234;-86
2022/06/11 11:29:08;;;;;;;1.00;1.00;;;;;;;;;;5022773;23;20227;-84
2022/06/11 11:31:45;;;;;;;0.80;0.80;;;;;;;;;;5016967;28;20214;-84
2022/06/11 11:34:18;;;;;;;1.20;1.10;;;;;;;;;;5016971;28;20420;-84
2022/06/11 11:36:46;;;;;;;0.85;0.85;;;;;;;;;;5017389;28;20598;-83
2022/06/11 11:39:26;;;;;;;1.10;1.10;;;;;;;;;;5016405;28;20199;-84
2022/06/11 11:42:12;;;;;;;0.90;0.90;;;;;;;;;;5016937;28;20254;-84
2022/06/11 11:44:48;;;;;;;1.02;0.95;;;;;;;;;;5017549;28;20313;-83
2022/06/11 11:47:22;;;;;;;0.90;0.90;;;;;;;;;;5017403;28;20222;-84
2022/06/11 11:50:07;;;;;;;0.88;0.88;;;;;;;;;;5016264;28;20226;-84
2022/06/11 11:52:41;;;;;;;0.90;0.90;;;;;;;;;;5017026;28;20306;-84
2022/06/11 11:55:17;;;;;;;0.70;0.70;;;;;;;;;;5017397;28;20194;-84
2022/06/11 11:57:55;;;;;;;0.85;0.85;;;;;;;;;;5009964;28;20659;-84
2022/06/11 12:00:32;;;;;;;0.80;0.80;;;;;;;;;;5016334;28;20282;-84
2022/06/11 12:03:03;;;;;;;1.20;1.10;;;;;;;;;;5016363;28;20636;-84
2022/06/11 12:05:37;;;;;;;0.82;0.82;;;;;;;;;;5017655;28;20187;-84
2022/06/11 12:08:14;;;;;;;1.10;1.10;;;;;;;;;;5015166;28;20194;-84
2022/06/11 12:10:49;;;;;;;1.40;1.30;;;;;;;;;;5014465;28;20234;-84
2022/06/11 12:13:25;;;;;;;0.73;0.73;;;;;;;;;;5015297;28;20273;-85
2022/06/11 12:15:58;;;;;;;0.80;0.80;;;;;;;;;;5016592;28;20635;-84
2022/06/11 12:18:34;;;;;;;0.77;0.77;;;;;;;;;;5016262;28;20257;-85
2022/06/11 12:21:06;;;;;;;0.70;0.70;;;;;;;;;;5016288;28;20234;-84
2022/06/11 12:23:40;;;;;;;0.73;0.73;;;;;;;;;;5016662;28;20711;-84
2022/06/11 12:26:13;;;;;;;0.95;0.95;;;;;;;;;;5016634;28;20547;-85
2022/06/11 12:28:44;;;;;;;1.10;1.10;;;;;;;;;;5015789;28;20400;-84
2022/06/11 12:31:13;;;;;;;0.90;0.90;;;;;;;;;;5015456;28;20274;-85
2022/06/11 12:33:44;;;;;;;0.70;0.70;;;;;;;;;;5015771;28;20234;-85
2022/06/11 12:36:18;;;;;;;0.82;0.82;;;;;;;;;;5015997;28;20195;-85
2022/06/11 12:38:54;;;;;;;0.82;0.82;;;;;;;;;;5013872;28;20191;-86
2022/06/11 12:41:34;;;;;;;0.70;0.70;;;;;;;;;;5015129;28;20260;-84
2022/06/11 12:44:32;;;;;;;1.27;1.13;;;;;;;;;;5015094;28;20765;-84
2022/06/11 12:47:09;;;;;;;0.63;0.63;;;;;;;;;;5014133;28;20261;-86
2022/06/11 12:49:42;;;;;;;0.93;0.93;;;;;;;;;;5015173;28;20234;-85
2022/06/11 12:52:16;;;;;;;0.85;0.80;;;;;;;;;;5015844;28;20231;-85
2022/06/11 12:55:05;;;;;;;0.82;0.80;;;;;;;;;;5014871;28;20226;-85
2022/06/11 12:57:46;;;;;;;0.77;0.77;;;;;;;;;;5014626;28;20294;-84
2022/06/11 13:00:40;;;;;;;0.80;0.80;;;;;;;;;;5014865;28;20213;-85
2022/06/11 13:04:13;;;;;;;0.82;0.82;;;;;;;;;;5015322;28;20262;-84
2022/06/11 13:06:55;;;;;;;0.70;0.70;;;;;;;;;;4935218;29;20244;-85
2022/06/11 13:09:43;;;;;;;0.90;0.90;;;;;;;;;;4935304;29;20206;-84
2022/06/11 13:12:24;;;;;;;1.20;1.10;;;;;;;;;;4988317;28;20628;-84
2022/06/11 13:15:09;;;;;;;0.80;0.80;;;;;;;;;;5014920;28;20317;-85
2022/06/11 13:18:05;;;;;;;0.85;0.80;;;;;;;;;;5014443;28;20242;-85
2022/06/11 13:20:39;;;;;;;0.77;0.77;;;;;;;;;;5014604;28;20207;-85
2022/06/11 13:23:17;;;;;;;0.70;0.70;;;;;;;;;;5014201;28;20691;-85
2022/06/11 13:25:53;;;;;;;0.85;0.85;;;;;;;;;;5014797;28;20241;-83
2022/06/11 13:28:46;;;;;;;1.15;0.95;;;;;;;;;;4999282;28;20210;-84
2022/06/11 13:31:22;;;;;;;0.93;0.93;;;;;;;;;;4997182;28;20211;-83
2022/06/11 13:34:09;;;;;;;0.90;0.90;;;;;;;;;;4995772;28;20644;-84
2022/06/11 13:37:02;;;;;;;0.50;0.50;;;;;;;;;;4995178;28;20294;-84
2022/06/11 13:39:57;;;;;;;0.95;0.95;;;;;;;;;;4995945;28;20207;-84
2022/06/11 13:42:34;;;;;;;1.00;1.00;;;;;;;;;;5000342;28;20184;-84
2022/06/11 13:45:35;;;;;;;0.80;0.80;;;;;;;;;;5000212;28;20211;-84
2022/06/11 13:48:33;;;;;;;0.90;0.90;;;;;;;;;;4999115;28;20210;-84
2022/06/11 13:51:14;;;;;;;0.90;0.90;;;;;;;;;;4999586;28;20234;-84
2022/06/11 13:56:39;;;;;;;0.60;0.60;;;;;;;;;;5001680;28;20191;-84
2022/06/11 13:59:35;;;;;;;0.70;0.70;;;;;;;;;;5017450;28;20307;-86
2022/06/11 14:02:49;;;;;;;0.80;0.80;;;;;;;;;;5018240;28;20289;-85
2022/06/11 14:05:23;;;;;;;0.70;0.70;;;;;;;;;;5015694;28;20672;-85
2022/06/11 14:07:53;;;;;;;0.80;0.80;;;;;;;;;;5021015;28;20233;-84
2022/06/11 14:10:36;;;;;;;0.82;0.82;;;;;;;;;;5018617;28;20207;-85
2022/06/11 14:13:07;;;;;;;0.60;0.60;;;;;;;;;;5020499;28;20334;-85
2022/06/11 14:15:42;;;;;;;1.00;0.93;;;;;;;;;;5020197;28;20193;-85
2022/06/11 14:18:39;;;;;;;1.05;1.05;;;;;;;;;;5018918;28;20293;-85
2022/06/11 14:21:25;;;;;;;1.00;1.00;;;;;;;;;;5020549;28;20187;-86
2022/06/11 14:23:52;;;;;;;0.90;0.90;;;;;;;;;;5018949;28;20250;-84
2022/06/11 14:26:52;;;;;;;0.95;0.95;;;;;;;;;;5018593;28;20687;-85
2022/06/11 14:29:29;;;;;;;1.15;1.15;;;;;;;;;;5019759;28;20675;-85
2022/06/11 14:32:01;;;;;;;0.80;0.80;;;;;;;;;;5020679;28;20297;-84
2022/06/11 14:34:33;;;;;;;1.98;1.10;;;;;;;;;;5020841;28;20259;-84
2022/06/11 14:37:21;;;;;;;0.90;0.90;;;;;;;;;;5020108;28;20290;-85
2022/06/11 14:39:49;;;;;;;1.08;0.98;;;;;;;;;;5019302;28;20238;-85
2022/06/11 14:42:24;;;;;;;0.85;0.85;;;;;;;;;;5019952;28;20290;-85
2022/06/11 14:45:47;;;;;;;0.93;0.90;;;;;;;;;;5018541;28;20621;-84
2022/06/11 14:48:24;;;;;;;0.90;0.73;;;;;;;;;;5019549;28;20608;-83
2022/06/11 14:51:13;;;;;;;0.70;0.70;;;;;;;;;;5018707;28;20209;-84
2022/06/11 14:53:44;;;;;;;0.70;0.70;;;;;;;;;;5018315;28;20261;-85
2022/06/11 14:56:23;;;;;;;0.85;0.85;;;;;;;;;;5018880;28;20642;-85
2022/06/11 14:59:34;;;;;;;1.10;1.00;;;;;;;;;;4999235;28;20200;-84
2022/06/11 15:02:48;;;;;;;1.08;0.90;;;;;;;;;;4998745;28;20703;-86
2022/06/11 15:05:36;;;;;;;0.95;0.95;;;;;;;;;;5001045;28;20227;-85
2022/06/11 15:08:21;;;;;;;1.27;1.10;;;;;;;;;;4999728;28;20203;-84
2022/06/11 15:10:51;;;;;;;0.80;0.80;;;;;;;;;;4998172;28;20231;-85
2022/06/11 15:14:03;;;;;;;1.23;0.80;;;;;;;;;;4998541;28;20306;-85
2022/06/11 15:16:39;;;;;;;1.08;1.08;;;;;;;;;;4968271;28;20242;-84
2022/06/11 15:19:13;;;;;;;0.90;0.90;;;;;;;;;;4999682;28;20223;-86
2022/06/11 15:21:47;;;;;;;0.90;0.90;;;;;;;;;;4998305;28;20290;-85
2022/06/11 15:24:22;;;;;;;1.30;1.20;;;;;;;;;;4998606;28;20223;-85
2022/06/11 15:26:54;;;;;;;0.82;0.82;;;;;;;;;;4998293;28;20645;-84
2022/06/11 15:29:24;;;;;;;1.40;1.33;;;;;;;;;;4997896;28;20236;-85
2022/06/11 15:32:00;;;;;;;0.90;0.90;;;;;;;;;;4998283;28;20216;-85